createdAt,value
2023-05-12T00:02:03.248Z,13.10
2023-05-12T00:04:31.589Z,13.10
2023-05-12T00:07:00.903Z,13.10
2023-05-12T00:09:28.921Z,13.10
2023-05-12T00:11:57.125Z,13.10
2023-05-12T00:14:25.183Z,13.10
2023-05-12T00:16:53.172Z,13.10
2023-05-12T00:19:21.552Z,13.10
2023-05-12T00:21:49.463Z,13.10
2023-05-12T00:24:18.811Z,13.10
2023-05-12T00:26:46.732Z,13.00
2023-05-12T00:29:14.717Z,13.10
2023-05-12T00:31:42.715Z,13.10
2023-05-12T00:34:10.699Z,13.10
2023-05-12T00:36:38.685Z,13.10
2023-05-12T00:39:06.776Z,13.00
2023-05-12T00:41:36.619Z,13.00
2023-05-12T00:44:04.668Z,13.00
2023-05-12T00:46:32.632Z,13.00
2023-05-12T00:49:00.750Z,13.00
2023-05-12T00:51:29.124Z,13.00
2023-05-12T00:53:57.611Z,13.00
2023-05-12T00:56:26.399Z,12.90
2023-05-12T00:58:55.958Z,12.90
2023-05-12T01:01:24.023Z,12.90
2023-05-12T01:03:52.114Z,12.80
2023-05-12T01:06:23.295Z,12.80
2023-05-12T01:08:51.551Z,12.80
2023-05-12T01:11:19.567Z,12.70
2023-05-12T01:13:47.526Z,12.70
2023-05-12T01:16:18.301Z,12.60
2023-05-12T01:18:49.949Z,12.60
2023-05-12T01:21:19.002Z,12.60
2023-05-12T01:23:49.938Z,12.50
2023-05-12T01:26:19.403Z,12.50
2023-05-12T01:28:48.286Z,12.50
2023-05-12T01:31:17.123Z,12.50
2023-05-12T01:33:46.245Z,12.40
2023-05-12T01:36:14.245Z,12.40
2023-05-12T01:38:56.114Z,12.30
2023-05-12T01:41:25.500Z,12.30
2023-05-12T01:43:53.437Z,12.30
2023-05-12T01:46:21.424Z,12.20
2023-05-12T01:48:49.418Z,12.20
2023-05-12T01:51:17.405Z,12.10
2023-05-12T01:53:45.422Z,12.10
2023-05-12T01:56:13.770Z,12.10
2023-05-12T01:58:43.177Z,12.00
2023-05-12T02:01:11.203Z,12.00
2023-05-12T02:03:39.448Z,11.90
2023-05-12T02:06:07.570Z,11.90
2023-05-12T02:08:36.076Z,11.90
2023-05-12T02:11:07.340Z,11.90
2023-05-12T02:13:35.448Z,11.80
2023-05-12T02:16:05.177Z,11.80
2023-05-12T02:18:33.272Z,11.80
2023-05-12T02:21:01.347Z,11.80
2023-05-12T02:23:29.309Z,11.80
2023-05-12T02:25:57.290Z,11.80
2023-05-12T02:28:25.252Z,11.70
2023-05-12T02:30:53.257Z,11.70
2023-05-12T02:33:22.965Z,11.70
2023-05-12T02:35:51.024Z,11.70
2023-05-12T02:38:19.160Z,11.60
2023-05-12T02:40:47.568Z,11.70
2023-05-12T02:43:15.718Z,11.60
2023-05-12T02:45:43.875Z,11.70
2023-05-12T02:48:12.037Z,11.60
2023-05-12T02:50:41.784Z,11.60
2023-05-12T02:53:09.874Z,11.70
2023-05-12T02:55:37.861Z,11.60
2023-05-12T02:58:05.854Z,11.60
2023-05-12T03:00:33.814Z,11.60
2023-05-12T03:03:01.834Z,11.60
2023-05-12T03:05:30.007Z,11.50
2023-05-12T03:07:59.557Z,11.50
2023-05-12T03:10:27.497Z,11.60
2023-05-12T03:12:55.443Z,11.50
2023-05-12T03:15:23.486Z,11.50
2023-05-12T03:17:51.592Z,11.50
2023-05-12T03:20:20.316Z,11.60
2023-05-12T03:22:48.511Z,11.60
2023-05-12T03:25:20.945Z,11.60
2023-05-12T03:27:48.977Z,11.50
2023-05-12T03:30:17.081Z,11.50
2023-05-12T03:32:46.251Z,11.40
2023-05-12T03:35:14.325Z,11.40
2023-05-12T03:37:42.288Z,11.50
2023-05-12T03:40:11.155Z,11.50
2023-05-12T03:42:40.511Z,11.50
2023-05-12T03:45:09.283Z,11.60
2023-05-12T03:47:37.429Z,11.60
2023-05-12T03:50:06.441Z,11.60
2023-05-12T03:52:34.441Z,11.60
2023-05-12T03:55:02.408Z,11.60
2023-05-12T03:57:30.365Z,11.60
2023-05-12T03:59:59.720Z,11.60
2023-05-12T04:02:27.932Z,11.60
2023-05-12T04:04:55.893Z,11.60
2023-05-12T04:07:23.894Z,11.60
2023-05-12T04:09:51.854Z,11.60
2023-05-12T04:12:19.847Z,11.70
2023-05-12T04:14:48.217Z,11.70
2023-05-12T04:17:18.689Z,11.70
2023-05-12T04:19:47.067Z,11.70
2023-05-12T04:22:15.061Z,11.70
2023-05-12T04:24:43.049Z,11.70
2023-05-12T04:27:11.020Z,11.70
2023-05-12T04:29:39.274Z,11.70
2023-05-12T04:32:07.662Z,11.70
2023-05-12T04:34:37.136Z,11.70
2023-05-12T04:37:06.985Z,11.80
2023-05-12T04:39:34.954Z,11.80
2023-05-12T04:42:03.004Z,11.80
2023-05-12T04:44:30.949Z,11.80
2023-05-12T04:46:58.937Z,11.80
2023-05-12T04:49:26.853Z,11.80
2023-05-12T04:51:56.210Z,11.80
2023-05-12T04:54:24.907Z,11.90
2023-05-12T04:56:52.867Z,11.90
2023-05-12T04:59:20.853Z,11.90
2023-05-12T05:01:48.970Z,12.00
2023-05-12T05:04:16.999Z,12.00
2023-05-12T05:06:45.004Z,12.00
2023-05-12T05:09:14.374Z,12.00
2023-05-12T05:11:42.332Z,12.00
2023-05-12T05:14:10.441Z,12.00
2023-05-12T05:16:38.455Z,12.10
2023-05-12T05:19:09.413Z,12.10
2023-05-12T05:21:47.427Z,12.10
2023-05-12T05:24:16.768Z,12.20
2023-05-12T05:26:45.653Z,12.20
2023-05-12T05:29:13.706Z,12.20
2023-05-12T05:31:41.713Z,12.20
2023-05-12T05:34:09.710Z,12.30
2023-05-12T05:36:37.713Z,12.30
2023-05-12T05:39:05.903Z,12.30
2023-05-12T05:41:35.412Z,12.30
2023-05-12T05:44:03.380Z,12.30
2023-05-12T05:46:31.670Z,12.40
2023-05-12T05:48:59.641Z,12.40
2023-05-12T05:51:27.600Z,12.50
2023-05-12T05:53:55.555Z,12.50
2023-05-12T05:56:24.127Z,12.60
2023-05-12T05:58:53.473Z,12.60
2023-05-12T06:01:21.503Z,12.60
2023-05-12T06:03:49.587Z,12.70
2023-05-12T06:06:18.168Z,12.70
2023-05-12T06:08:46.483Z,12.80
2023-05-12T06:11:15.926Z,12.90
2023-05-12T06:13:45.187Z,12.90
2023-05-12T06:16:14.555Z,13.00
2023-05-12T06:18:42.799Z,13.10
2023-05-12T06:21:10.930Z,13.20
2023-05-12T06:23:38.966Z,13.20
2023-05-12T06:26:07.756Z,13.30
2023-05-12T06:28:35.751Z,13.40
2023-05-12T06:31:03.714Z,13.40
2023-05-12T06:33:33.076Z,13.50
2023-05-12T06:36:01.051Z,13.50
2023-05-12T06:38:29.047Z,13.60
2023-05-12T06:40:57.013Z,13.60
2023-05-12T06:43:25.076Z,13.60
2023-05-12T06:45:53.150Z,13.70
2023-05-12T06:48:21.687Z,13.80
2023-05-12T06:50:51.034Z,13.90
2023-05-12T06:53:18.990Z,13.90
2023-05-12T06:55:47.235Z,14.00
2023-05-12T06:58:15.211Z,14.00
2023-05-12T07:00:43.267Z,14.10
2023-05-12T07:03:11.307Z,14.10
2023-05-12T07:05:39.661Z,14.20
2023-05-12T07:08:09.031Z,14.30
2023-05-12T07:10:37.999Z,14.30
2023-05-12T07:13:06.075Z,14.40
2023-05-12T07:15:34.191Z,14.40
2023-05-12T07:18:02.201Z,14.40
2023-05-12T07:20:30.295Z,14.50
2023-05-12T07:22:58.356Z,14.60
2023-05-12T07:25:28.220Z,14.60
2023-05-12T07:27:56.265Z,14.70
2023-05-12T07:30:24.242Z,14.80
2023-05-12T07:32:52.948Z,14.80
2023-05-12T07:35:21.184Z,14.90
2023-05-12T07:37:49.383Z,15.00
2023-05-12T07:40:17.419Z,15.00
2023-05-12T07:42:46.711Z,15.10
2023-05-12T07:45:14.749Z,15.20
2023-05-12T07:47:42.826Z,15.30
2023-05-12T07:50:11.137Z,15.40
2023-05-12T07:52:46.816Z,15.50
2023-05-12T07:55:15.428Z,15.50
2023-05-12T07:57:43.530Z,15.60
2023-05-12T08:00:14.393Z,15.60
2023-05-12T08:02:42.936Z,15.70
2023-05-12T08:05:11.021Z,15.70
2023-05-12T08:07:41.105Z,15.80
2023-05-12T08:10:10.290Z,15.80
2023-05-12T08:12:38.249Z,15.90
2023-05-12T08:15:06.630Z,15.90
2023-05-12T08:17:36.376Z,16.00
2023-05-12T08:20:05.184Z,16.10
2023-05-12T08:22:33.861Z,16.10
2023-05-12T08:25:01.868Z,16.20
2023-05-12T08:27:30.532Z,16.20
2023-05-12T08:29:58.975Z,16.20
2023-05-12T08:32:27.057Z,16.20
2023-05-12T08:34:56.484Z,16.30
2023-05-12T08:37:24.498Z,16.40
2023-05-12T08:39:52.797Z,16.50
2023-05-12T08:42:28.629Z,16.60
2023-05-12T08:44:56.710Z,16.70
2023-05-12T08:47:25.798Z,16.80
2023-05-12T08:49:59.561Z,16.90
2023-05-12T08:52:30.414Z,17.00
2023-05-12T08:54:59.470Z,17.10
2023-05-12T08:57:29.554Z,17.20
2023-05-12T08:59:59.435Z,17.40
2023-05-12T09:02:37.718Z,17.40
2023-05-12T09:05:09.886Z,17.40
2023-05-12T09:07:40.771Z,17.50
2023-05-12T09:10:22.532Z,17.60
2023-05-12T09:13:03.524Z,17.70
2023-05-12T09:15:35.056Z,17.80
2023-05-12T09:18:03.104Z,17.90
2023-05-12T09:20:32.152Z,17.90
2023-05-12T09:23:15.274Z,18.10
2023-05-12T09:25:44.792Z,18.20
2023-05-12T09:28:12.930Z,18.40
2023-05-12T09:30:42.535Z,18.60
2023-05-12T09:33:11.784Z,18.70
2023-05-12T09:35:40.634Z,18.70
2023-05-12T09:38:09.250Z,18.90
2023-05-12T09:40:37.538Z,19.00
2023-05-12T09:43:08.174Z,19.00
2023-05-12T09:45:37.101Z,19.00
2023-05-12T09:48:12.007Z,19.10
2023-05-12T09:50:48.088Z,19.30
2023-05-12T09:53:17.475Z,19.30
2023-05-12T09:55:45.725Z,19.50
2023-05-12T09:58:16.091Z,19.60
2023-05-12T10:01:12.907Z,19.60
2023-05-12T10:03:33.075Z,19.70
2023-05-12T10:06:02.535Z,19.80
2023-05-12T10:08:32.879Z,19.80
2023-05-12T10:11:01.091Z,19.90
2023-05-12T10:13:30.821Z,20.00
2023-05-12T10:15:59.551Z,20.00
2023-05-12T10:18:27.629Z,20.10
2023-05-12T10:20:57.233Z,20.20
2023-05-12T10:23:26.889Z,20.20
2023-05-12T10:25:58.499Z,20.40
2023-05-12T10:28:26.498Z,20.40
2023-05-12T10:30:56.174Z,20.50
2023-05-12T10:33:24.210Z,20.50
2023-05-12T10:35:52.758Z,20.50
2023-05-12T10:38:21.000Z,20.50
2023-05-12T10:40:55.797Z,20.60
2023-05-12T10:43:24.846Z,20.70
2023-05-12T10:46:10.076Z,20.70
2023-05-12T10:48:39.069Z,20.70
2023-05-12T10:51:08.050Z,20.70
2023-05-12T10:53:48.704Z,20.70
2023-05-12T10:56:22.806Z,20.90
2023-05-12T10:59:12.080Z,20.90
2023-05-12T11:01:43.162Z,20.90
2023-05-12T11:04:13.139Z,20.90
2023-05-12T11:06:42.934Z,20.90
2023-05-12T11:09:13.148Z,21.00
2023-05-12T11:11:41.658Z,21.20
2023-05-12T11:14:10.364Z,21.40
2023-05-12T11:16:44.380Z,21.30
2023-05-12T11:19:12.850Z,21.40
2023-05-12T11:21:41.119Z,21.40
2023-05-12T11:24:13.147Z,21.50
2023-05-12T11:26:41.628Z,21.50
2023-05-12T11:29:09.634Z,21.60
2023-05-12T11:31:38.033Z,21.70
2023-05-12T11:34:13.029Z,21.90
2023-05-12T11:36:46.687Z,22.00
2023-05-12T11:39:15.238Z,22.00
2023-05-12T11:41:43.200Z,22.10
2023-05-12T11:44:14.730Z,22.20
2023-05-12T11:46:42.681Z,22.20
2023-05-12T11:49:13.216Z,22.40
2023-05-12T11:51:44.230Z,22.50
2023-05-12T11:54:12.237Z,22.50
2023-05-12T11:56:40.189Z,22.60
2023-05-12T11:59:08.198Z,22.80
2023-05-12T12:01:44.955Z,23.00
2023-05-12T12:04:14.644Z,23.10
2023-05-12T12:06:46.022Z,23.30
2023-05-12T12:09:14.146Z,23.20
2023-05-12T12:11:42.067Z,23.10
2023-05-12T12:14:10.044Z,23.00
2023-05-12T12:16:38.125Z,22.90
2023-05-12T12:19:07.383Z,23.00
2023-05-12T12:21:36.819Z,23.20
2023-05-12T12:24:06.258Z,23.40
2023-05-12T12:26:34.249Z,23.30
2023-05-12T12:29:02.211Z,23.20
2023-05-12T12:31:30.253Z,23.10
2023-05-12T12:33:59.112Z,23.00
2023-05-12T12:36:27.106Z,22.90
2023-05-12T12:38:56.437Z,23.20
2023-05-12T12:41:24.408Z,23.40
2023-05-12T12:43:52.530Z,23.50
2023-05-12T12:46:20.596Z,23.60
2023-05-12T12:48:48.929Z,23.60
2023-05-12T12:51:16.926Z,23.50
2023-05-12T12:53:45.696Z,23.40
2023-05-12T12:56:15.409Z,23.30
2023-05-12T12:58:43.407Z,23.20
2023-05-12T13:01:11.480Z,23.00
2023-05-12T13:03:40.533Z,22.90
2023-05-12T13:06:09.223Z,22.80
2023-05-12T13:08:37.174Z,22.80
2023-05-12T13:11:05.378Z,22.90
2023-05-12T13:13:34.661Z,22.80
2023-05-12T13:16:03.253Z,22.80
2023-05-12T13:18:31.230Z,22.70
2023-05-12T13:20:59.392Z,22.80
2023-05-12T13:23:27.366Z,22.80
2023-05-12T13:25:55.442Z,22.80
2023-05-12T13:28:23.482Z,22.90
2023-05-12T13:30:53.863Z,23.00
2023-05-12T13:33:22.213Z,23.30
2023-05-12T13:35:50.154Z,23.70
2023-05-12T13:38:19.061Z,24.00
2023-05-12T13:40:47.136Z,24.30
2023-05-12T13:43:15.283Z,24.30
2023-05-12T13:45:43.393Z,24.40
2023-05-12T13:48:12.855Z,24.50
2023-05-12T13:50:41.165Z,24.50
2023-05-12T13:53:09.104Z,24.50
2023-05-12T13:55:40.612Z,24.40
2023-05-12T13:58:08.978Z,24.50
2023-05-12T14:00:37.007Z,24.60
2023-05-12T14:03:05.079Z,25.00
2023-05-12T14:05:34.528Z,25.40
2023-05-12T14:08:02.488Z,25.40
2023-05-12T14:10:30.436Z,25.50
2023-05-12T14:12:58.373Z,25.70
2023-05-12T14:15:36.481Z,26.40
2023-05-12T14:18:14.222Z,26.50
2023-05-12T14:20:44.267Z,28.70
2023-05-12T14:23:12.334Z,29.90
2023-05-12T14:25:40.281Z,29.80
2023-05-12T14:28:08.394Z,30.80
2023-05-12T14:30:37.442Z,30.90
2023-05-12T14:33:05.620Z,31.80
2023-05-12T14:35:33.618Z,30.70
2023-05-12T14:38:02.957Z,29.20
2023-05-12T14:40:30.968Z,28.10
2023-05-12T14:42:59.706Z,27.70
2023-05-12T14:45:28.391Z,27.20
2023-05-12T14:47:56.509Z,26.70
2023-05-12T14:50:24.612Z,26.30
2023-05-12T14:52:52.686Z,25.90
2023-05-12T14:55:22.398Z,25.60
2023-05-12T14:57:50.658Z,25.40
2023-05-12T15:00:19.062Z,25.20
2023-05-12T15:02:47.234Z,25.00
2023-05-12T15:05:15.535Z,24.70
2023-05-12T15:07:43.545Z,24.60
2023-05-12T15:10:12.013Z,24.50
2023-05-12T15:12:41.354Z,24.60
2023-05-12T15:15:11.582Z,25.10
2023-05-12T15:17:39.808Z,27.70
2023-05-12T15:20:09.829Z,30.10
2023-05-12T15:22:37.795Z,32.50
2023-05-12T15:25:06.218Z,34.00
2023-05-12T15:27:34.255Z,34.70
2023-05-12T15:30:03.760Z,35.00
2023-05-12T15:32:32.119Z,34.60
2023-05-12T15:35:00.134Z,34.40
2023-05-12T15:37:28.178Z,34.60
2023-05-12T15:39:56.222Z,34.50
2023-05-12T15:42:30.103Z,34.70
2023-05-12T15:45:01.072Z,35.00
2023-05-12T15:47:30.709Z,35.20
2023-05-12T15:49:58.702Z,34.50
2023-05-12T15:52:27.753Z,32.70
2023-05-12T15:54:55.758Z,31.50
2023-05-12T15:57:23.757Z,32.30
2023-05-12T15:59:52.114Z,32.10
2023-05-12T16:02:20.193Z,32.60
2023-05-12T16:04:49.529Z,32.00
2023-05-12T16:07:17.547Z,30.60
2023-05-12T16:09:45.585Z,30.00
2023-05-12T16:12:15.215Z,29.90
2023-05-12T16:14:43.195Z,30.10
2023-05-12T16:17:11.150Z,30.10
2023-05-12T16:19:39.093Z,30.00
2023-05-12T16:22:08.737Z,29.80
2023-05-12T16:24:37.412Z,29.70
2023-05-12T16:27:05.608Z,29.40
2023-05-12T16:29:33.651Z,29.10
2023-05-12T16:32:01.732Z,28.80
2023-05-12T16:34:29.730Z,28.70
2023-05-12T16:36:57.723Z,28.40
2023-05-12T16:39:27.063Z,28.30
2023-05-12T16:41:55.873Z,28.20
2023-05-12T16:44:23.865Z,28.10
2023-05-12T16:46:51.868Z,27.80
2023-05-12T16:49:19.829Z,27.60
2023-05-12T16:51:47.814Z,26.90
2023-05-12T16:54:15.846Z,26.70
2023-05-12T16:56:45.323Z,26.50
2023-05-12T16:59:13.497Z,26.40
2023-05-12T17:01:41.512Z,26.30
2023-05-12T17:04:11.882Z,26.00
2023-05-12T17:06:39.866Z,26.10
2023-05-12T17:09:07.821Z,25.80
2023-05-12T17:11:36.653Z,25.70
2023-05-12T17:14:06.048Z,25.60
2023-05-12T17:16:34.155Z,25.50
2023-05-12T17:21:33.732Z,25.50
2023-05-12T17:24:01.781Z,25.20
2023-05-12T17:26:29.928Z,25.20
2023-05-12T17:28:57.916Z,24.90
2023-05-12T17:31:27.638Z,24.80
2023-05-12T17:33:55.740Z,24.70
2023-05-12T17:36:23.725Z,24.80
2023-05-12T17:38:52.101Z,24.70
2023-05-12T17:41:20.194Z,24.60
2023-05-12T17:43:48.275Z,24.40
2023-05-12T17:46:16.672Z,24.40
2023-05-12T17:48:46.389Z,24.30
2023-05-12T17:51:14.478Z,24.30
2023-05-12T17:53:42.471Z,24.10
2023-05-12T17:56:10.493Z,24.00
2023-05-12T17:58:38.534Z,24.00
2023-05-12T18:01:06.602Z,23.90
2023-05-12T18:03:35.621Z,23.70
2023-05-12T18:06:05.764Z,23.60
2023-05-12T18:08:33.748Z,23.40
2023-05-12T18:11:01.768Z,23.40
2023-05-12T18:13:29.749Z,23.30
2023-05-12T18:15:57.726Z,23.10
2023-05-12T18:18:26.207Z,23.00
2023-05-12T18:20:54.297Z,22.90
2023-05-12T18:23:23.663Z,22.80
2023-05-12T18:25:51.719Z,22.80
2023-05-12T18:28:19.704Z,22.50
2023-05-12T18:30:47.746Z,22.40
2023-05-12T18:33:16.198Z,22.30
2023-05-12T18:35:44.276Z,22.30
2023-05-12T18:38:12.457Z,22.20
2023-05-12T18:40:41.778Z,22.20
2023-05-12T18:43:09.969Z,22.20
2023-05-12T18:45:38.131Z,22.10
2023-05-12T18:48:06.257Z,22.00
2023-05-12T18:50:34.268Z,21.90
2023-05-12T18:53:02.227Z,21.70
2023-05-12T18:55:30.244Z,21.70
2023-05-12T18:57:59.594Z,21.60
2023-05-12T19:00:31.921Z,21.40
2023-05-12T19:03:00.101Z,21.30
2023-05-12T19:05:28.247Z,21.20
2023-05-12T19:07:56.346Z,21.10
2023-05-12T19:10:24.317Z,21.00
2023-05-12T19:12:52.301Z,20.90
2023-05-12T19:15:22.078Z,20.80
2023-05-12T19:17:50.377Z,20.70
2023-05-12T19:20:18.530Z,20.60
2023-05-12T19:22:46.552Z,20.40
2023-05-12T19:25:17.847Z,20.30
2023-05-12T19:27:46.146Z,20.20
2023-05-12T19:30:14.892Z,20.10
2023-05-12T19:32:45.999Z,20.10
2023-05-12T19:35:15.562Z,19.90
2023-05-12T19:37:43.883Z,19.80
2023-05-12T19:40:12.451Z,19.80
2023-05-12T19:42:42.234Z,19.60
2023-05-12T19:45:10.646Z,19.60
2023-05-12T19:47:38.713Z,19.50
2023-05-12T19:50:09.161Z,19.40
2023-05-12T19:52:37.323Z,19.30
2023-05-12T19:55:05.724Z,19.10
2023-05-12T19:57:33.669Z,19.10
2023-05-12T20:00:01.677Z,19.00
2023-05-12T20:02:31.034Z,19.00
2023-05-12T20:05:00.049Z,18.90
2023-05-12T20:07:29.516Z,18.80
2023-05-12T20:09:57.505Z,18.80
2023-05-12T20:12:25.499Z,18.70
2023-05-12T20:14:53.585Z,18.60
2023-05-12T20:17:21.578Z,18.50
2023-05-12T20:19:49.634Z,18.40
2023-05-12T20:22:17.645Z,18.40
2023-05-12T20:24:46.986Z,18.40
2023-05-12T20:27:14.990Z,18.30
2023-05-12T20:29:42.952Z,18.30
2023-05-12T20:32:12.891Z,18.20
2023-05-12T20:34:42.328Z,18.10
2023-05-12T20:37:10.375Z,18.10
2023-05-12T20:39:38.460Z,18.00
2023-05-12T20:42:08.741Z,17.90
2023-05-12T20:44:36.766Z,17.90
2023-05-12T20:47:04.823Z,17.80
2023-05-12T20:49:32.808Z,17.70
2023-05-12T20:52:00.820Z,17.80
2023-05-12T20:54:28.788Z,17.70
2023-05-12T20:56:56.738Z,17.60
2023-05-12T20:59:26.066Z,17.50
2023-05-12T21:01:54.051Z,17.20
2023-05-12T21:04:22.141Z,17.20
2023-05-12T21:06:51.542Z,17.20
2023-05-12T21:09:21.256Z,17.30
2023-05-12T21:11:49.213Z,17.30
2023-05-12T21:14:17.143Z,17.20
2023-05-12T21:16:46.589Z,17.20
2023-05-12T21:19:14.666Z,17.10
2023-05-12T21:21:42.648Z,17.20
2023-05-12T21:24:10.975Z,17.20
2023-05-12T21:26:39.091Z,17.20
2023-05-12T21:29:07.099Z,17.20
2023-05-12T21:31:35.152Z,17.10
2023-05-12T21:34:04.582Z,17.00
2023-05-12T21:36:33.678Z,17.00
2023-05-12T21:39:01.671Z,17.00
2023-05-12T21:41:30.213Z,17.00
2023-05-12T21:43:58.213Z,17.00
2023-05-12T21:46:26.219Z,17.00
2023-05-12T21:48:54.196Z,17.00
2023-05-12T21:51:23.552Z,16.90
2023-05-12T21:53:51.560Z,16.80
2023-05-12T21:56:19.642Z,16.80
2023-05-12T21:58:48.036Z,16.80
2023-05-12T22:01:16.505Z,16.80
2023-05-12T22:03:44.537Z,16.80
2023-05-12T22:06:12.949Z,16.70
2023-05-12T22:08:42.330Z,16.60
2023-05-12T22:11:10.491Z,16.60
2023-05-12T22:13:38.490Z,16.50
2023-05-12T22:16:06.782Z,16.50
2023-05-12T22:18:35.605Z,16.40
2023-05-12T22:21:03.774Z,16.00
2023-05-12T22:23:31.880Z,16.30
2023-05-12T22:26:01.611Z,16.40
2023-05-12T22:28:29.577Z,16.20
2023-05-12T22:30:57.752Z,16.20
2023-05-12T22:33:25.899Z,16.10
2023-05-12T22:35:53.917Z,16.10
2023-05-12T22:38:21.899Z,16.00
2023-05-12T22:40:49.875Z,16.00
2023-05-12T22:43:19.337Z,16.00
2023-05-12T22:45:50.293Z,16.00
2023-05-12T22:48:18.441Z,15.90
2023-05-12T22:50:46.563Z,15.70
2023-05-12T22:53:14.680Z,15.80
2023-05-12T22:55:42.740Z,15.70
2023-05-12T22:58:11.665Z,15.70
2023-05-12T23:00:41.051Z,15.40
2023-05-12T23:03:09.290Z,15.70
2023-05-12T23:05:37.297Z,15.60
2023-05-12T23:08:05.608Z,15.60
2023-05-12T23:10:33.565Z,15.60
2023-05-12T23:13:01.551Z,15.60
2023-05-12T23:15:29.506Z,15.40
2023-05-12T23:17:58.943Z,15.40
2023-05-12T23:20:26.952Z,15.30
2023-05-12T23:22:54.961Z,15.30
2023-05-12T23:25:22.941Z,15.30
2023-05-12T23:27:51.038Z,15.20
2023-05-12T23:30:19.193Z,15.20
2023-05-12T23:32:50.261Z,15.10
2023-05-12T23:35:19.761Z,15.10
2023-05-12T23:37:47.772Z,15.10
2023-05-12T23:40:15.771Z,15.10
2023-05-12T23:42:43.803Z,15.10
2023-05-12T23:45:12.349Z,15.10
2023-05-12T23:47:40.367Z,15.00
2023-05-12T23:50:08.953Z,15.00
2023-05-12T23:52:38.404Z,15.00
2023-05-12T23:55:06.758Z,15.00
2023-05-12T23:57:34.767Z,15.00
